Time;durP1;ratioP1;P1;durP2;ratioP2;P2;SDS_P1;SDS_P2;PMS_P1;PMS_P2;Temp;Humidity;BMP_temperature;BMP_pressure;BME280_temperature;BME280_humidity;BME280_pressure;Samples;Min_cycle;Max_cycle;Signal;HPM_P1;HPM_P2
2022/05/15 05:19:03;;;;;;;8.63;3.92;;;;;;;;;;5011911;28;20062;-80
2022/05/15 06:05:27;;;;;;;11.00;3.70;;;;;;;;;;4908759;29;20052;-81
2022/05/15 06:21:36;;;;;;;6.88;3.22;;;;;;;;;;4893488;29;20044;-81
2022/05/15 06:24:58;;;;;;;10.38;4.25;;;;;;;;;;4883751;29;20436;-81
2022/05/15 06:33:40;;;;;;;7.95;3.47;;;;;;;;;;4922461;29;20043;-81
2022/05/15 06:37:54;;;;;;;36.33;27.63;;;;;;;;;;4949503;28;20049;-83
2022/05/15 06:40:52;;;;;;;11.55;8.32;;;;;;;;;;4952745;28;20046;-79
2022/05/15 06:43:46;;;;;;;8.82;4.40;;;;;;;;;;4984934;28;20042;-79
2022/05/15 06:46:32;;;;;;;9.10;4.47;;;;;;;;;;5025158;28;20042;-79
2022/05/15 06:49:18;;;;;;;165.23;110.35;;;;;;;;;;5035820;28;20050;-79
2022/05/15 06:52:03;;;;;;;72.78;44.53;;;;;;;;;;5020566;28;20042;-80
2022/05/15 06:54:49;;;;;;;9.73;5.68;;;;;;;;;;5020779;28;20042;-79
2022/05/15 06:57:34;;;;;;;11.32;5.20;;;;;;;;;;5026498;28;20469;-81
2022/05/15 07:00:22;;;;;;;11.43;4.80;;;;;;;;;;5014693;28;20400;-80
2022/05/15 07:03:10;;;;;;;15.52;4.32;;;;;;;;;;5039726;28;20046;-80
2022/05/15 07:05:55;;;;;;;8.25;4.50;;;;;;;;;;5039999;28;20045;-80
2022/05/15 07:08:41;;;;;;;11.23;4.50;;;;;;;;;;5033606;28;20045;-80
2022/05/15 07:11:26;;;;;;;10.05;4.25;;;;;;;;;;5034109;28;20472;-79
2022/05/15 07:14:13;;;;;;;7.88;4.20;;;;;;;;;;5040681;28;20041;-80
2022/05/15 07:16:58;;;;;;;8.25;4.50;;;;;;;;;;5033202;28;20400;-80
2022/05/15 07:19:44;;;;;;;8.07;4.60;;;;;;;;;;5030522;28;20041;-80
2022/05/15 07:22:29;;;;;;;10.07;4.18;;;;;;;;;;5033741;28;20404;-79
2022/05/15 07:25:15;;;;;;;6.68;4.60;;;;;;;;;;5033852;28;20038;-80
2022/05/15 07:28:00;;;;;;;6.50;4.07;;;;;;;;;;5033359;28;20045;-79
2022/05/15 07:30:46;;;;;;;13.25;5.18;;;;;;;;;;5033556;28;20432;-79
2022/05/15 07:33:32;;;;;;;6.45;4.13;;;;;;;;;;5039685;28;20480;-79
2022/05/15 07:36:19;;;;;;;10.45;4.32;;;;;;;;;;5025407;28;20477;-80
2022/05/15 07:39:05;;;;;;;10.18;4.03;;;;;;;;;;5033370;28;20045;-80
2022/05/15 07:41:51;;;;;;;8.23;4.82;;;;;;;;;;5039593;28;20045;-79
2022/05/15 07:44:36;;;;;;;8.15;3.25;;;;;;;;;;5043577;28;20476;-81
2022/05/15 07:47:22;;;;;;;4.65;3.00;;;;;;;;;;5040753;28;20514;-80
2022/05/15 07:50:10;;;;;;;4.72;2.55;;;;;;;;;;5035557;28;20670;-79
2022/05/15 07:52:56;;;;;;;12.45;3.00;;;;;;;;;;5014607;28;20041;-80
2022/05/15 07:55:41;;;;;;;4.95;2.47;;;;;;;;;;5017398;28;20054;-80
2022/05/15 07:58:27;;;;;;;6.07;2.58;;;;;;;;;;5017488;28;20038;-79
2022/05/15 08:01:13;;;;;;;10.68;2.53;;;;;;;;;;5023131;28;20046;-79
2022/05/15 08:03:58;;;;;;;10.70;2.20;;;;;;;;;;5043972;28;20053;-79
2022/05/15 08:09:47;;;;;;;6.47;2.58;;;;;;;;;;5043235;28;20488;-79
2022/05/15 08:12:34;;;;;;;5.40;2.70;;;;;;;;;;5043440;28;20369;-79
2022/05/15 08:15:19;;;;;;;6.22;2.90;;;;;;;;;;5035282;28;20485;-80
2022/05/15 08:24:14;;;;;;;5.93;2.63;;;;;;;;;;5023677;28;20046;-79
2022/05/15 08:27:00;;;;;;;5.80;3.80;;;;;;;;;;5017676;28;20389;-78
2022/05/15 08:29:45;;;;;;;9.25;3.40;;;;;;;;;;5031714;28;20050;-80
2022/05/15 08:32:31;;;;;;;7.47;2.88;;;;;;;;;;5040753;28;20049;-81
2022/05/15 08:35:18;;;;;;;6.63;3.50;;;;;;;;;;5043210;28;20041;-79
2022/05/15 08:38:05;;;;;;;10.63;4.20;;;;;;;;;;5043977;28;20049;-78
2022/05/15 08:40:57;;;;;;;6.55;3.70;;;;;;;;;;5041890;28;20033;-78
2022/05/15 08:43:51;;;;;;;6.85;2.50;;;;;;;;;;5035055;28;20038;-78
2022/05/15 08:46:51;;;;;;;8.52;2.28;;;;;;;;;;5030532;28;20400;-77
2022/05/15 08:49:39;;;;;;;5.40;2.30;;;;;;;;;;5041274;28;20467;-78
2022/05/15 08:52:37;;;;;;;5.50;1.75;;;;;;;;;;5043081;28;20042;-78
2022/05/15 08:55:32;;;;;;;5.97;1.92;;;;;;;;;;5031023;28;20050;-77
2022/05/15 08:58:50;;;;;;;7.78;1.63;;;;;;;;;;5037536;28;20045;-79
2022/05/15 09:01:36;;;;;;;8.65;1.90;;;;;;;;;;5028703;28;20053;-78
2022/05/15 09:04:22;;;;;;;4.35;1.50;;;;;;;;;;4999584;28;20050;-79
2022/05/15 09:07:30;;;;;;;4.88;1.30;;;;;;;;;;5020956;28;20042;-78
2022/05/15 09:10:32;;;;;;;5.38;2.03;;;;;;;;;;5020578;28;20045;-80
2022/05/15 09:13:45;;;;;;;5.15;1.85;;;;;;;;;;5020896;28;20049;-77
2022/05/15 09:16:31;;;;;;;7.68;1.95;;;;;;;;;;5021039;28;20037;-77
2022/05/15 09:19:17;;;;;;;7.93;1.77;;;;;;;;;;5021791;28;20046;-78
2022/05/15 09:22:04;;;;;;;4.78;1.60;;;;;;;;;;5016206;28;20058;-80
2022/05/15 09:24:51;;;;;;;7.03;1.83;;;;;;;;;;5022669;28;20049;-80
2022/05/15 09:27:36;;;;;;;7.28;1.75;;;;;;;;;;5023282;28;20389;-80
2022/05/15 09:30:22;;;;;;;5.18;1.65;;;;;;;;;;5022740;28;20057;-79
2022/05/15 09:33:31;;;;;;;5.38;2.05;;;;;;;;;;5022468;28;20054;-80
2022/05/15 09:36:25;;;;;;;8.32;1.95;;;;;;;;;;5022448;28;20053;-78
2022/05/15 09:39:24;;;;;;;5.38;1.83;;;;;;;;;;5022127;28;20474;-79
2022/05/15 09:45:35;;;;;;;4.32;1.58;;;;;;;;;;5022130;28;20046;-79
2022/05/15 09:48:32;;;;;;;3.47;1.60;;;;;;;;;;5022312;28;20050;-78
2022/05/15 09:51:36;;;;;;;6.03;1.83;;;;;;;;;;5022088;28;20046;-78
2022/05/15 09:54:31;;;;;;;7.38;2.05;;;;;;;;;;5015058;28;20045;-79
2022/05/15 09:57:25;;;;;;;5.43;2.00;;;;;;;;;;5022080;28;20049;-78
2022/05/15 10:00:12;;;;;;;3.53;1.60;;;;;;;;;;5021349;28;20045;-80
2022/05/15 10:03:14;;;;;;;3.25;1.70;;;;;;;;;;5021726;28;20050;-78
2022/05/15 10:06:06;;;;;;;8.55;2.00;;;;;;;;;;5021452;28;20058;-77
2022/05/15 10:09:13;;;;;;;5.82;1.58;;;;;;;;;;5021589;28;20045;-79
2022/05/15 10:12:05;;;;;;;6.03;1.83;;;;;;;;;;5022198;28;20054;-80
2022/05/15 10:14:53;;;;;;;4.30;1.27;;;;;;;;;;5021402;28;20496;-78
2022/05/15 10:17:52;;;;;;;4.10;1.70;;;;;;;;;;5021812;28;20046;-78
2022/05/15 10:20:39;;;;;;;6.70;2.05;;;;;;;;;;5021689;28;20461;-78
2022/05/15 10:23:29;;;;;;;6.47;3.25;;;;;;;;;;5016492;28;20058;-80
2022/05/15 10:26:31;;;;;;;3.47;1.20;;;;;;;;;;5023245;28;20050;-78
2022/05/15 10:29:36;;;;;;;8.55;1.88;;;;;;;;;;5021521;28;20050;-77
2022/05/15 10:32:36;;;;;;;2.42;1.35;;;;;;;;;;5014977;28;20046;-79
2022/05/15 10:35:34;;;;;;;3.58;1.65;;;;;;;;;;5014661;28;20058;-79
2022/05/15 10:38:35;;;;;;;4.35;1.55;;;;;;;;;;5021314;28;20400;-78
2022/05/15 10:41:38;;;;;;;4.75;1.95;;;;;;;;;;5021588;28;20050;-78
2022/05/15 10:44:34;;;;;;;5.57;1.60;;;;;;;;;;5021741;28;20058;-79
2022/05/15 10:47:27;;;;;;;9.88;1.90;;;;;;;;;;5021052;28;20050;-78
2022/05/15 10:50:43;;;;;;;6.85;1.70;;;;;;;;;;5020835;28;20054;-78
2022/05/15 11:00:19;;;;;;;6.78;1.65;;;;;;;;;;5020924;28;20042;-78
2022/05/15 11:03:32;;;;;;;4.63;1.80;;;;;;;;;;5014321;28;20038;-78
2022/05/15 11:06:35;;;;;;;3.75;1.45;;;;;;;;;;5020757;28;20061;-79
2022/05/15 11:09:35;;;;;;;5.32;1.88;;;;;;;;;;5020876;28;20049;-79
2022/05/15 11:12:34;;;;;;;22.50;4.28;;;;;;;;;;5020740;28;20046;-79
2022/05/15 11:15:36;;;;;;;5.70;3.00;;;;;;;;;;5020409;28;20049;-80
2022/05/15 11:18:47;;;;;;;12.48;3.08;;;;;;;;;;5020483;28;20053;-78
2022/05/15 11:21:53;;;;;;;6.55;2.20;;;;;;;;;;5019538;28;20050;-79
2022/05/15 11:24:54;;;;;;;5.07;1.65;;;;;;;;;;5020856;28;20050;-79
2022/05/15 11:27:42;;;;;;;4.20;1.58;;;;;;;;;;5020140;28;20408;-78
2022/05/15 11:30:36;;;;;;;4.53;1.73;;;;;;;;;;5020460;28;20050;-78
2022/05/15 11:33:30;;;;;;;4.03;1.95;;;;;;;;;;5020150;28;20053;-79
2022/05/15 11:36:21;;;;;;;3.13;1.35;;;;;;;;;;5019938;28;20485;-78
2022/05/15 11:39:23;;;;;;;3.42;1.90;;;;;;;;;;5020351;28;20057;-79
2022/05/15 11:42:17;;;;;;;1.67;1.33;;;;;;;;;;5020114;28;20042;-78
2022/05/15 11:45:32;;;;;;;2.30;1.20;;;;;;;;;;5020576;28;20050;-78
2022/05/15 11:48:17;;;;;;;;;;;;;;;;;;5008014;28;20397;-77
2022/05/15 11:51:22;;;;;;;4.18;1.48;;;;;;;;;;5020311;28;19913;-78
2022/05/15 11:54:10;;;;;;;6.95;1.48;;;;;;;;;;5020525;28;20046;-77
2022/05/15 11:56:57;;;;;;;4.32;2.30;;;;;;;;;;5020131;28;20045;-79
2022/05/15 11:59:55;;;;;;;5.47;1.92;;;;;;;;;;5019939;28;20046;-78
2022/05/15 12:02:50;;;;;;;7.28;1.73;;;;;;;;;;5019748;28;20050;-78
2022/05/15 12:06:05;;;;;;;3.88;1.83;;;;;;;;;;5020157;28;20042;-79
2022/05/15 12:09:11;;;;;;;4.10;1.23;;;;;;;;;;5013303;28;20042;-78
2022/05/15 12:12:16;;;;;;;5.47;1.33;;;;;;;;;;5020199;28;20046;-77
2022/05/15 12:15:16;;;;;;;5.05;1.52;;;;;;;;;;5020160;28;20050;-78
2022/05/15 12:18:22;;;;;;;6.63;1.95;;;;;;;;;;5019622;28;20042;-77
2022/05/15 12:21:09;;;;;;;6.50;1.70;;;;;;;;;;5019720;28;20041;-78
2022/05/15 12:27:19;;;;;;;4.75;1.48;;;;;;;;;;5020267;28;20058;-77
2022/05/15 12:30:13;;;;;;;5.18;1.80;;;;;;;;;;5022096;28;20046;-77
2022/05/15 12:33:07;;;;;;;5.32;1.52;;;;;;;;;;5023494;28;20469;-77
2022/05/15 12:35:54;;;;;;;5.88;2.22;;;;;;;;;;5023910;28;20042;-77
2022/05/15 12:38:45;;;;;;;3.40;1.77;;;;;;;;;;5023009;28;20046;-76
2022/05/15 12:41:37;;;;;;;3.65;1.60;;;;;;;;;;5023149;28;20038;-78
2022/05/15 12:44:33;;;;;;;4.78;1.73;;;;;;;;;;5023175;28;20092;-77
2022/05/15 12:47:22;;;;;;;3.72;1.45;;;;;;;;;;5023172;28;20050;-78
2022/05/15 12:50:14;;;;;;;4.85;1.77;;;;;;;;;;5023565;28;20054;-78
2022/05/15 12:53:04;;;;;;;13.50;2.00;;;;;;;;;;5022967;28;20049;-76
2022/05/15 12:55:52;;;;;;;5.95;1.85;;;;;;;;;;5033570;28;20041;-77
2022/05/15 12:58:39;;;;;;;3.70;1.75;;;;;;;;;;5040735;28;20053;-77
2022/05/15 13:01:30;;;;;;;3.42;1.60;;;;;;;;;;5042707;28;20041;-77
2022/05/15 13:04:21;;;;;;;7.53;1.88;;;;;;;;;;5042315;28;20053;-78
2022/05/15 13:07:07;;;;;;;6.85;1.73;;;;;;;;;;5043201;28;20050;-77
2022/05/15 13:09:57;;;;;;;9.57;1.73;;;;;;;;;;5043382;28;20049;-77
2022/05/15 13:12:54;;;;;;;5.78;2.00;;;;;;;;;;5042409;28;20053;-77
2022/05/15 13:15:45;;;;;;;6.07;1.83;;;;;;;;;;5042439;28;20054;-78
2022/05/15 13:18:34;;;;;;;4.38;1.65;;;;;;;;;;5042548;28;20050;-77
2022/05/15 13:21:32;;;;;;;4.88;1.60;;;;;;;;;;5041524;28;20396;-76
2022/05/15 13:24:19;;;;;;;7.18;1.92;;;;;;;;;;5035111;28;20361;-77
2022/05/15 13:27:06;;;;;;;5.60;2.08;;;;;;;;;;5031980;28;20046;-78
2022/05/15 13:29:52;;;;;;;4.72;1.65;;;;;;;;;;5041589;28;20053;-77
2022/05/15 13:32:41;;;;;;;3.70;1.77;;;;;;;;;;5040208;28;20049;-78
2022/05/15 13:35:33;;;;;;;7.68;1.98;;;;;;;;;;5030531;28;20045;-77
2022/05/15 13:38:26;;;;;;;4.10;1.40;;;;;;;;;;5041025;28;20492;-78
2022/05/15 13:44:17;;;;;;;3.75;1.80;;;;;;;;;;5040776;28;20053;-79
2022/05/15 13:47:10;;;;;;;8.80;1.80;;;;;;;;;;5032428;28;20037;-78
2022/05/15 13:49:55;;;;;;;3.42;1.30;;;;;;;;;;5040738;28;20045;-78
2022/05/15 13:52:41;;;;;;;4.07;1.67;;;;;;;;;;5041263;28;20049;-78
2022/05/15 13:55:38;;;;;;;3.05;1.60;;;;;;;;;;5038842;28;20037;-77
2022/05/15 13:58:50;;;;;;;2.85;1.67;;;;;;;;;;5041668;28;20054;-78
2022/05/15 14:01:36;;;;;;;3.67;1.65;;;;;;;;;;5041107;28;20049;-77
2022/05/15 14:04:24;;;;;;;17.95;9.35;;;;;;;;;;5041517;28;20050;-77
2022/05/15 14:07:22;;;;;;;3.55;2.03;;;;;;;;;;5040533;28;20049;-77
2022/05/15 14:10:16;;;;;;;4.88;1.67;;;;;;;;;;5039796;28;20053;-78
2022/05/15 14:13:04;;;;;;;5.07;2.03;;;;;;;;;;5041381;28;20045;-78
2022/05/15 14:15:51;;;;;;;3.70;1.73;;;;;;;;;;5041362;28;20045;-78
2022/05/15 14:18:37;;;;;;;3.30;1.70;;;;;;;;;;5041344;28;20049;-77
2022/05/15 14:21:29;;;;;;;8.40;2.03;;;;;;;;;;5038876;28;20045;-77
2022/05/15 14:24:14;;;;;;;6.68;1.80;;;;;;;;;;5040900;28;20477;-78
2022/05/15 14:26:58;;;;;;;5.85;2.20;;;;;;;;;;5034635;28;20041;-76
2022/05/15 14:29:45;;;;;;;5.82;2.00;;;;;;;;;;5040808;28;20071;-77
2022/05/15 14:32:33;;;;;;;9.93;1.73;;;;;;;;;;5041166;28;20049;-80
2022/05/15 14:35:22;;;;;;;12.75;1.90;;;;;;;;;;5034472;28;20079;-80
2022/05/15 14:38:07;;;;;;;5.25;1.58;;;;;;;;;;5040792;28;20492;-79
2022/05/15 14:40:53;;;;;;;3.80;1.70;;;;;;;;;;5034495;28;20045;-79
2022/05/15 14:43:40;;;;;;;9.93;1.95;;;;;;;;;;5040872;28;20392;-78
2022/05/15 14:46:29;;;;;;;8.40;1.50;;;;;;;;;;5040999;28;20057;-79
2022/05/15 14:49:16;;;;;;;4.88;1.50;;;;;;;;;;5040972;28;20045;-79
2022/05/15 14:52:02;;;;;;;5.35;1.60;;;;;;;;;;5040305;28;20057;-79
2022/05/15 14:54:47;;;;;;;9.10;1.75;;;;;;;;;;5040748;28;20053;-79
2022/05/15 14:57:33;;;;;;;9.85;1.98;;;;;;;;;;5040723;28;20053;-78
2022/05/15 15:00:19;;;;;;;7.07;1.48;;;;;;;;;;5033715;28;20472;-78
2022/05/15 15:03:05;;;;;;;3.85;1.90;;;;;;;;;;5040615;28;20484;-79
2022/05/15 15:05:52;;;;;;;5.68;1.73;;;;;;;;;;5040236;28;20400;-79
2022/05/15 15:08:39;;;;;;;9.55;1.70;;;;;;;;;;5040579;28;20049;-78
2022/05/15 15:11:31;;;;;;;5.50;1.58;;;;;;;;;;5040294;28;20053;-78
2022/05/15 15:14:18;;;;;;;3.13;1.45;;;;;;;;;;5041143;28;20041;-78
2022/05/15 15:17:04;;;;;;;7.10;1.80;;;;;;;;;;5040239;28;20041;-78
2022/05/15 15:19:48;;;;;;;4.25;1.52;;;;;;;;;;5025234;28;20484;-79
2022/05/15 15:22:33;;;;;;;5.70;1.45;;;;;;;;;;5036534;28;20054;-79
2022/05/15 15:25:19;;;;;;;4.75;1.40;;;;;;;;;;5040347;28;20053;-79
2022/05/15 15:28:05;;;;;;;8.18;1.60;;;;;;;;;;5040564;28;20045;-78
2022/05/15 15:30:50;;;;;;;7.00;1.45;;;;;;;;;;5040556;28;20457;-78
2022/05/15 15:33:37;;;;;;;6.20;1.60;;;;;;;;;;5039761;28;20037;-77
2022/05/15 15:36:23;;;;;;;3.85;1.40;;;;;;;;;;5033604;28;20045;-78
2022/05/15 15:39:09;;;;;;;5.25;1.60;;;;;;;;;;5039972;28;20049;-79
2022/05/15 15:41:55;;;;;;;5.35;1.60;;;;;;;;;;5040195;28;20129;-78
2022/05/15 15:44:41;;;;;;;3.17;1.30;;;;;;;;;;5040944;28;20049;-78
2022/05/15 15:47:26;;;;;;;5.68;1.30;;;;;;;;;;5040261;28;20037;-78
2022/05/15 15:50:12;;;;;;;2.05;1.38;;;;;;;;;;5040355;28;20053;-77
2022/05/15 15:52:59;;;;;;;4.80;1.42;;;;;;;;;;5040256;28;20058;-78
2022/05/15 15:55:45;;;;;;;2.58;1.20;;;;;;;;;;5040146;28;20045;-78
2022/05/15 15:58:30;;;;;;;5.10;1.40;;;;;;;;;;5039572;28;20476;-79
2022/05/15 16:01:18;;;;;;;11.52;2.13;;;;;;;;;;5039276;28;20045;-79
2022/05/15 16:04:03;;;;;;;3.75;1.33;;;;;;;;;;5040382;28;20050;-78
2022/05/15 16:06:49;;;;;;;2.50;1.15;;;;;;;;;;5044186;28;20045;-78
2022/05/15 16:09:38;;;;;;;3.20;1.42;;;;;;;;;;5037096;28;20053;-78
2022/05/15 16:12:23;;;;;;;5.50;1.65;;;;;;;;;;5037486;28;20053;-79
2022/05/15 16:15:08;;;;;;;5.10;1.42;;;;;;;;;;5043532;28;20480;-79
2022/05/15 16:17:55;;;;;;;2.72;1.60;;;;;;;;;;5043861;28;20041;-79
2022/05/15 16:20:57;;;;;;;2.78;1.33;;;;;;;;;;5044072;28;20045;-80
2022/05/15 16:23:43;;;;;;;6.88;1.60;;;;;;;;;;5017224;28;20046;-81
2022/05/15 16:26:32;;;;;;;3.50;1.55;;;;;;;;;;5017281;28;20042;-80
2022/05/15 16:29:19;;;;;;;4.68;1.90;;;;;;;;;;5023473;28;20489;-79
2022/05/15 16:32:04;;;;;;;6.13;2.60;;;;;;;;;;5024155;28;20385;-79
2022/05/15 16:34:50;;;;;;;9.95;2.90;;;;;;;;;;5023537;28;20045;-77
2022/05/15 16:37:35;;;;;;;9.95;2.03;;;;;;;;;;5023188;28;20050;-79
2022/05/15 16:40:22;;;;;;;8.18;1.88;;;;;;;;;;5023365;28;20038;-78
2022/05/15 16:43:08;;;;;;;5.05;1.60;;;;;;;;;;5016402;28;20058;-78
2022/05/15 16:45:53;;;;;;;3.85;1.63;;;;;;;;;;5023469;28;20393;-78
2022/05/15 16:48:41;;;;;;;6.88;1.90;;;;;;;;;;5016829;28;20054;-79
2022/05/15 16:51:26;;;;;;;11.00;2.88;;;;;;;;;;5022696;28;20053;-78
2022/05/15 16:54:11;;;;;;;9.10;2.08;;;;;;;;;;5022846;28;20404;-79
2022/05/15 16:56:57;;;;;;;12.00;2.08;;;;;;;;;;5023014;28;20054;-78
2022/05/15 16:59:43;;;;;;;14.73;2.15;;;;;;;;;;5023384;28;20050;-80
2022/05/15 17:02:28;;;;;;;5.68;2.00;;;;;;;;;;5022926;28;20393;-77
2022/05/15 17:05:16;;;;;;;6.38;1.60;;;;;;;;;;5022345;28;20504;-78
2022/05/15 17:08:02;;;;;;;27.85;2.85;;;;;;;;;;5022909;28;20046;-78
2022/05/15 17:10:49;;;;;;;9.77;2.10;;;;;;;;;;5022358;28;20061;-78
2022/05/15 17:13:33;;;;;;;4.75;2.10;;;;;;;;;;5015803;28;20481;-78
2022/05/15 17:16:19;;;;;;;9.45;2.10;;;;;;;;;;5022461;28;20058;-78
2022/05/15 17:19:05;;;;;;;8.13;2.20;;;;;;;;;;5022474;28;20050;-78
2022/05/15 17:21:50;;;;;;;7.20;1.95;;;;;;;;;;5025711;28;20053;-77
2022/05/15 17:24:36;;;;;;;6.95;1.90;;;;;;;;;;5042231;28;20046;-77
2022/05/15 17:27:22;;;;;;;6.82;1.90;;;;;;;;;;5042557;28;20041;-77
2022/05/15 17:36:10;;;;;;;15.00;7.80;;;;;;;;;;5040392;28;20053;-77
2022/05/15 17:38:56;;;;;;;16.50;6.78;;;;;;;;;;5038054;28;20045;-77
2022/05/15 17:41:42;;;;;;;19.70;7.57;;;;;;;;;;5031976;28;20038;-77
2022/05/15 17:44:31;;;;;;;10.93;5.78;;;;;;;;;;5039869;28;20042;-77
2022/05/15 17:47:17;;;;;;;14.20;4.68;;;;;;;;;;5038146;28;20477;-76
2022/05/15 17:50:07;;;;;;;13.90;6.65;;;;;;;;;;5038876;28;20049;-76
2022/05/15 17:52:53;;;;;;;12.25;4.03;;;;;;;;;;5039788;28;20049;-76
2022/05/15 17:55:39;;;;;;;6.93;3.10;;;;;;;;;;5037757;28;20054;-77
2022/05/15 17:58:24;;;;;;;6.72;2.22;;;;;;;;;;5038908;28;20045;-77
2022/05/15 18:01:12;;;;;;;9.00;3.05;;;;;;;;;;5039208;28;20484;-77
2022/05/15 18:03:57;;;;;;;20.30;6.05;;;;;;;;;;5037827;28;20045;-76
2022/05/15 18:06:42;;;;;;;9.70;4.35;;;;;;;;;;5038061;28;20460;-79
2022/05/15 18:09:28;;;;;;;15.82;4.75;;;;;;;;;;5039177;28;20049;-77
2022/05/15 18:12:16;;;;;;;11.90;4.40;;;;;;;;;;5039830;28;20037;-78
2022/05/15 18:15:01;;;;;;;12.05;3.38;;;;;;;;;;5037817;28;20045;-75
2022/05/15 18:17:47;;;;;;;6.97;2.72;;;;;;;;;;5023727;28;20042;-78
2022/05/15 18:20:33;;;;;;;14.60;3.08;;;;;;;;;;5038965;28;20041;-76
2022/05/15 18:23:19;;;;;;;4.70;2.53;;;;;;;;;;5033059;28;20053;-77
2022/05/15 18:26:04;;;;;;;7.40;2.70;;;;;;;;;;5037821;28;20398;-76
2022/05/15 18:28:50;;;;;;;12.45;3.20;;;;;;;;;;5038244;28;20053;-76
2022/05/15 18:31:38;;;;;;;37.45;3.42;;;;;;;;;;5039211;28;20045;-77
2022/05/15 18:34:24;;;;;;;8.93;2.78;;;;;;;;;;5039636;28;20045;-76
2022/05/15 18:37:09;;;;;;;12.57;3.03;;;;;;;;;;5039642;28;20049;-77
2022/05/15 18:39:55;;;;;;;8.00;2.80;;;;;;;;;;5035740;28;20041;-76
2022/05/15 18:42:43;;;;;;;9.35;2.60;;;;;;;;;;5039343;28;20041;-75
2022/05/15 18:45:29;;;;;;;15.23;3.03;;;;;;;;;;5039847;28;20041;-78
2022/05/15 18:48:14;;;;;;;11.00;2.85;;;;;;;;;;5039101;28;20038;-77
2022/05/15 18:57:07;;;;;;;13.18;3.70;;;;;;;;;;5035811;28;20459;-76
2022/05/15 18:59:54;;;;;;;14.52;3.35;;;;;;;;;;5038930;28;20045;-76
2022/05/15 19:02:39;;;;;;;6.70;2.85;;;;;;;;;;5037246;28;20387;-76
2022/05/15 19:05:25;;;;;;;11.35;3.13;;;;;;;;;;5058207;28;20061;-76
2022/05/15 19:08:10;;;;;;;8.90;2.75;;;;;;;;;;5056858;28;20468;-77
2022/05/15 19:10:58;;;;;;;9.15;2.78;;;;;;;;;;5059568;28;20411;-77
2022/05/15 19:13:42;;;;;;;16.88;2.90;;;;;;;;;;5060519;28;20048;-77
2022/05/15 19:16:28;;;;;;;6.22;2.63;;;;;;;;;;5060218;28;20048;-80
2022/05/15 19:19:13;;;;;;;23.73;3.78;;;;;;;;;;5046502;28;20487;-77
2022/05/15 19:21:59;;;;;;;6.70;2.72;;;;;;;;;;5058220;28;20057;-77
2022/05/15 19:24:46;;;;;;;9.82;2.50;;;;;;;;;;5041960;28;20481;-77
2022/05/15 19:27:31;;;;;;;9.48;2.65;;;;;;;;;;5034272;28;20053;-76
2022/05/15 19:30:17;;;;;;;11.80;3.35;;;;;;;;;;5040168;28;20049;-77
2022/05/15 19:33:03;;;;;;;7.78;2.88;;;;;;;;;;5040399;28;20469;-77
2022/05/15 19:35:49;;;;;;;7.07;3.25;;;;;;;;;;5033981;28;20049;-80
2022/05/15 19:38:38;;;;;;;8.13;2.40;;;;;;;;;;5033395;28;20049;-76
2022/05/15 19:41:23;;;;;;;5.13;2.22;;;;;;;;;;5039728;28;20472;-76
2022/05/15 19:44:09;;;;;;;8.93;2.40;;;;;;;;;;5040197;28;20049;-76
2022/05/15 19:46:53;;;;;;;4.80;2.28;;;;;;;;;;5040292;28;20057;-76
2022/05/15 19:49:41;;;;;;;6.68;2.20;;;;;;;;;;5040335;28;20045;-77
2022/05/15 19:52:27;;;;;;;7.97;2.22;;;;;;;;;;5033089;28;20053;-77
2022/05/15 19:55:12;;;;;;;4.78;2.47;;;;;;;;;;5039948;28;20407;-76
2022/05/15 19:57:58;;;;;;;8.63;2.75;;;;;;;;;;5040466;28;20049;-76
2022/05/15 20:00:53;;;;;;;17.23;3.47;;;;;;;;;;5039694;28;20049;-77
2022/05/15 20:03:38;;;;;;;4.47;2.50;;;;;;;;;;5023965;28;20046;-76
2022/05/15 20:12:37;;;;;;;14.10;2.80;;;;;;;;;;5039564;28;20053;-76
2022/05/15 20:15:24;;;;;;;13.68;2.70;;;;;;;;;;5039851;28;20045;-77
2022/05/15 20:18:09;;;;;;;5.35;2.42;;;;;;;;;;5039747;28;20049;-78
2022/05/15 20:20:56;;;;;;;13.55;2.88;;;;;;;;;;5043752;28;20036;-76
2022/05/15 20:23:42;;;;;;;13.13;2.42;;;;;;;;;;5019548;28;20396;-77
2022/05/15 20:26:28;;;;;;;8.00;2.85;;;;;;;;;;5058152;28;20045;-76
2022/05/15 20:29:13;;;;;;;10.75;2.65;;;;;;;;;;5059643;28;20049;-76
2022/05/15 20:31:59;;;;;;;14.90;3.13;;;;;;;;;;5059728;28;20057;-76
2022/05/15 20:34:44;;;;;;;5.93;3.20;;;;;;;;;;5059488;28;20057;-75
2022/05/15 20:37:30;;;;;;;5.40;2.20;;;;;;;;;;5059610;28;20483;-76
2022/05/15 20:40:15;;;;;;;4.75;2.28;;;;;;;;;;5059365;28;20431;-78
2022/05/15 20:43:01;;;;;;;7.07;2.10;;;;;;;;;;5060004;28;20037;-77
2022/05/15 20:45:47;;;;;;;7.40;1.88;;;;;;;;;;5013270;28;20038;-76
2022/05/15 20:48:32;;;;;;;5.55;3.03;;;;;;;;;;5019620;28;20053;-76
2022/05/15 20:51:18;;;;;;;6.00;1.98;;;;;;;;;;5022268;28;20061;-78
2022/05/15 20:54:04;;;;;;;13.95;2.40;;;;;;;;;;5023390;28;20488;-77
2022/05/15 20:56:50;;;;;;;3.95;2.30;;;;;;;;;;5023254;28;20049;-77
2022/05/15 20:59:38;;;;;;;6.20;2.80;;;;;;;;;;5036579;28;20049;-77
2022/05/15 21:02:23;;;;;;;9.15;2.85;;;;;;;;;;5022704;28;20046;-77
2022/05/15 21:05:09;;;;;;;8.00;2.30;;;;;;;;;;5008350;28;20046;-77
2022/05/15 21:07:54;;;;;;;6.63;2.38;;;;;;;;;;5023446;28;20046;-76
2022/05/15 21:10:41;;;;;;;6.57;2.78;;;;;;;;;;5023107;28;20474;-77
2022/05/15 21:13:26;;;;;;;3.88;2.00;;;;;;;;;;5023164;28;20045;-77
2022/05/15 21:16:12;;;;;;;5.63;1.95;;;;;;;;;;5022680;28;20477;-77
2022/05/15 21:18:58;;;;;;;6.47;1.70;;;;;;;;;;5022994;28;20493;-77
2022/05/15 21:21:44;;;;;;;6.50;2.20;;;;;;;;;;5016091;28;20061;-77
2022/05/15 21:24:30;;;;;;;4.63;2.20;;;;;;;;;;5026386;28;20045;-77
2022/05/15 21:27:16;;;;;;;3.72;2.13;;;;;;;;;;5030526;28;20046;-77
2022/05/15 21:30:01;;;;;;;5.43;2.13;;;;;;;;;;5021231;28;20050;-77
2022/05/15 21:32:47;;;;;;;5.20;1.90;;;;;;;;;;5020760;28;20054;-76
2022/05/15 21:35:32;;;;;;;7.95;2.30;;;;;;;;;;5030899;28;20041;-76
2022/05/15 21:44:26;;;;;;;12.38;3.17;;;;;;;;;;5042172;28;20423;-76
2022/05/15 21:47:12;;;;;;;11.13;3.70;;;;;;;;;;5042451;28;20050;-78
2022/05/15 21:49:57;;;;;;;7.30;3.70;;;;;;;;;;5042321;28;20468;-77
2022/05/15 21:52:43;;;;;;;7.88;3.28;;;;;;;;;;5042156;28;20053;-76
2022/05/15 21:55:28;;;;;;;5.18;2.70;;;;;;;;;;5042402;28;20049;-77
2022/05/15 21:58:14;;;;;;;8.73;3.00;;;;;;;;;;5041741;28;20053;-78
2022/05/15 22:01:01;;;;;;;10.27;3.08;;;;;;;;;;5041767;28;20057;-77
2022/05/15 22:03:48;;;;;;;12.95;2.65;;;;;;;;;;5035249;28;20045;-78
2022/05/15 22:06:34;;;;;;;4.75;2.45;;;;;;;;;;5045370;28;20045;-77
2022/05/15 22:09:19;;;;;;;5.47;2.30;;;;;;;;;;5041302;28;20045;-77
2022/05/15 22:12:05;;;;;;;9.98;2.80;;;;;;;;;;5039511;28;20468;-79
2022/05/15 22:14:51;;;;;;;8.23;2.70;;;;;;;;;;5040539;28;20041;-78
2022/05/15 22:17:36;;;;;;;7.18;3.20;;;;;;;;;;5041168;28;20045;-78
2022/05/15 22:20:22;;;;;;;6.22;3.20;;;;;;;;;;5038903;28;20045;-78
2022/05/15 22:23:07;;;;;;;6.82;3.15;;;;;;;;;;5034306;28;20057;-78
2022/05/15 22:25:54;;;;;;;9.35;3.20;;;;;;;;;;5040042;28;20037;-79
2022/05/15 22:28:39;;;;;;;5.30;2.80;;;;;;;;;;5038772;28;20041;-78
2022/05/15 22:31:24;;;;;;;5.60;2.75;;;;;;;;;;5039298;28;20053;-78
2022/05/15 22:34:09;;;;;;;7.30;3.20;;;;;;;;;;5039727;28;20415;-78
2022/05/15 22:36:55;;;;;;;9.40;2.63;;;;;;;;;;5040701;28;20053;-78
2022/05/15 22:39:41;;;;;;;5.88;2.42;;;;;;;;;;5038159;28;20041;-78
2022/05/15 22:42:26;;;;;;;5.53;2.65;;;;;;;;;;5038962;28;20400;-78
2022/05/15 22:45:12;;;;;;;6.22;2.88;;;;;;;;;;5040114;28;20061;-77
2022/05/15 22:47:57;;;;;;;8.55;2.78;;;;;;;;;;5037574;28;20404;-78
2022/05/15 22:50:42;;;;;;;7.10;3.00;;;;;;;;;;5038696;28;20045;-78
2022/05/15 22:53:28;;;;;;;7.28;3.20;;;;;;;;;;5038888;28;20041;-77
2022/05/15 22:56:13;;;;;;;5.18;2.80;;;;;;;;;;5033394;28;20493;-76
2022/05/15 22:58:59;;;;;;;4.88;2.85;;;;;;;;;;5031410;28;20049;-78
2022/05/15 23:01:44;;;;;;;9.43;3.15;;;;;;;;;;5031599;28;20038;-77
2022/05/15 23:07:35;;;;;;;8.65;3.05;;;;;;;;;;5038341;28;20389;-77
2022/05/15 23:10:25;;;;;;;6.35;3.60;;;;;;;;;;5037077;28;20049;-76
2022/05/15 23:13:12;;;;;;;7.88;3.90;;;;;;;;;;5038032;28;20484;-78
2022/05/15 23:15:57;;;;;;;4.32;2.90;;;;;;;;;;5032115;28;20055;-77
2022/05/15 23:18:42;;;;;;;6.90;2.78;;;;;;;;;;5037903;28;20049;-77
2022/05/15 23:21:30;;;;;;;6.35;3.10;;;;;;;;;;5039408;28;20401;-78
2022/05/15 23:24:16;;;;;;;6.75;3.38;;;;;;;;;;5040683;28;20053;-77
2022/05/15 23:27:01;;;;;;;9.65;3.17;;;;;;;;;;5039907;28;20408;-77
2022/05/15 23:29:47;;;;;;;6.43;3.20;;;;;;;;;;5038695;28;20049;-78
2022/05/15 23:32:33;;;;;;;6.80;3.10;;;;;;;;;;5039243;28;20045;-77
2022/05/15 23:35:19;;;;;;;7.03;3.70;;;;;;;;;;5038833;28;20045;-77
2022/05/15 23:38:05;;;;;;;6.75;3.97;;;;;;;;;;5039191;28;20038;-77
2022/05/15 23:40:50;;;;;;;6.93;3.47;;;;;;;;;;5039345;28;20045;-77
2022/05/15 23:43:37;;;;;;;8.60;3.08;;;;;;;;;;5040855;28;20041;-77
2022/05/15 23:46:21;;;;;;;10.85;3.13;;;;;;;;;;5041408;28;20045;-78
2022/05/15 23:49:09;;;;;;;6.25;3.10;;;;;;;;;;5040518;28;20053;-77
2022/05/15 23:51:55;;;;;;;6.97;3.60;;;;;;;;;;5040370;28;20049;-77
2022/05/15 23:54:40;;;;;;;8.13;4.50;;;;;;;;;;5039914;28;20053;-76
2022/05/15 23:57:29;;;;;;;11.77;4.90;;;;;;;;;;5040069;28;20049;-76
